Etusivu
METAR-TAF:

METAR-TAF

Lentoasemat :

Akeno, Japani

Leveyspiiri: 34-32N, Pituuspiiri: 136-41E, korkeus merenpinnasta: 6 m

Tämänhetkinen sää

Tämä raportti tehtiin 1 tunti ja 20 minuuttia sitten, kello 23.14 UTC
Tuuli 2 kn eri suunnista
Lämpötila 19°C
Kosteus 88%
Ilmanpaine 1003 hPa
Näkyvyys 10 km tai enemmän
Muutamia pilviä 1000 ft:n korkeudessa
Hajanaisia pilviä 2000 ft:n korkeudessa
Hajonneita pilviä 4500 ft:n korkeudessa

METAR: RJOE 252314Z VRB02KT 9999 FEW010 SCT020 BKN045 19/17 Q1003 RMK 1ST010 3CU020 5SC045 A2963

Aika: 09:34 (00:34 UTC)


TAF: puuttuu

Säähavainnot ja -ennusteet yli 4000 lentoasemalta (METAR- ja TAF-raportit).

Käytössä olevat sääasemat on merkitty karttaan keltaisilla ja punaisilla pisteillä.

Aseta hiiri pisteen päälle nähdäksesi sääaseman nimen.

Klikkaa sitten nähdäksesi säähavainnot ja -ennusteet.

Kartan vaihtaminen: klikkaa mustalla rastilla varustettuja vihreitä pisteitä, niin voit zoomata sisään; viivalla varustettua vihreää pistettä, niin voit zoomata ulos tai vihreitä nuolia, niin pääset viereisille kartoille.


METAR-TAF: